Volcan De Tauce — EAGW — position and weather

sailwx.info

Track history (hours):
 
Tides and Currents Weather Stations Pressure Air Temp Water Temp Dewpoint Dewpoint Depression Visibility Wind Speed Wind Dir Waves Ship Positions

Volcan De Tauce

Last reported at 2016-May-28 21:31 UTC. Time now 2016-May-28 22:09 UTC.
Position N 28°08' W 015°25'.

Length 120 m; draft 4.7 m.

Type: Passenger vessel. MMSI: 224761000.

Date/timePositionNaut miles runAvg speedWind from/ knotsBaromVisibWave heightAir tempDewpointWater temp
2016-May-28 21:31N 28°08' W 015°25'0 0.0
2016-May-28 20:31N 28°08' W 015°25'0 0.0
2016-May-28 19:22N 28°08' W 015°25'0 0.0
2016-May-28 18:25N 28°08' W 015°25'0 0.0
2016-May-28 17:25N 28°08' W 015°25'0 0.0
2016-May-28 16:33N 28°08' W 015°25'1212.5
2016-May-28 15:33N 28°06' W 015°11'1616.1
2016-May-28 14:33N 28°04' W 014°53'1616.1
2016-May-28 13:34N 28°02' W 014°35'1915.6
2016-May-28 12:21N 28°04' W 014°13'3114.9
2016-May-28 10:15N 28°28' W 013°51'20 3.6
2016-May-28 04:30N 28°09' W 013°60'1716.0
2016-May-28 03:25N 28°01' W 014°17'2115.4
2016-May-28 02:05N 28°02' W 014°40'815.7
2016-May-28 01:33N 28°03' W 014°50'1615.8
2016-May-28 00:33N 28°05' W 015°08'1515.0
2016-May-27 23:33N 28°08' W 015°25'1 0.7
2016-May-27 22:33N 28°08' W 015°25'0 0.0
2016-May-27 21:33N 28°08' W 015°25'0 0.0
2016-May-27 20:33N 28°08' W 015°25'0 0.0
2016-May-27 19:24N 28°08' W 015°25'0 0.0
2016-May-27 18:27N 28°08' W 015°25'0 0.0
2016-May-27 17:27N 28°08' W 015°25'0 0.3
2016-May-27 16:33N 28°08' W 015°25'1414.5
2016-May-27 15:33N 28°06' W 015°08'1615.6
2016-May-27 14:33N 28°04' W 014°51'1615.5
2016-May-27 13:33N 28°02' W 014°33'1715.4
2016-May-27 12:26N 28°04' W 014°14'13 1.6
2016-May-27 04:14N 28°09' W 014°00'1115.9
2016-May-27 03:31N 28°04' W 014°12'3015.1
2016-May-27 01:34N 28°03' W 014°45'1615.6
2016-May-27 00:34N 28°05' W 015°03'1615.6
2016-May-26 23:34N 28°07' W 015°20'4 3.5
2016-May-26 22:22N 28°08' W 015°25'0 0.0
2016-May-26 21:25N 28°08' W 015°25'0 0.0
2016-May-26 20:25N 28°08' W 015°25'0 0.0
2016-May-26 19:25N 28°08' W 015°25'0 0.0
2016-May-26 18:28N 28°08' W 015°25'0 0.0
2016-May-26 17:28N 28°08' W 015°25'1 1.0
2016-May-26 16:33N 28°07' W 015°24'1515.3
2016-May-26 15:33N 28°06' W 015°07'1615.6
2016-May-26 14:33N 28°04' W 014°50'1615.5
2016-May-26 13:33N 28°02' W 014°32'1615.3
2016-May-26 12:30N 28°04' W 014°14'8 0.9
2016-May-26 03:32N 28°08' W 014°06'2914.8
2016-May-26 01:33N 28°03' W 014°39'1515.3
2016-May-26 00:34N 28°04' W 014°56'1515.4
2016-May-25 23:33N 28°06' W 015°13'1010.2
2016-May-25 22:33N 28°08' W 015°25'0 0.0
2016-May-25 21:33N 28°08' W 015°25'0 0.0
2016-May-25 20:23N 28°08' W 015°25'0 0.0
2016-May-25 19:26N 28°08' W 015°25'0 0.0
2016-May-25 18:26N 28°08' W 015°25'0 0.0
2016-May-25 17:29N 28°08' W 015°25'1 1.0
2016-May-25 16:34N 28°07' W 015°24'1515.0
2016-May-25 15:34N 28°06' W 015°08'1615.6
2016-May-25 14:34N 28°04' W 014°50'1615.6
2016-May-25 13:34N 28°01' W 014°33'1815.7
2016-May-25 12:27N 28°04' W 014°13'8 1.0
2016-May-25 03:34N 28°08' W 014°05'3014.8
2016-May-25 01:33N 28°02' W 014°38'1515.5
2016-May-25 00:33N 28°04' W 014°55'1615.6
2016-May-24 23:33N 28°06' W 015°13'1110.9
2016-May-24 22:33N 28°08' W 015°25'0 0.0
2016-May-24 21:33N 28°08' W 015°25'0 0.0
2016-May-24 20:33N 28°08' W 015°25'0 0.0
2016-May-24 19:33N 28°08' W 015°25'0 0.0
2016-May-24 18:33N 28°08' W 015°25'0 0.0
2016-May-24 17:24N 28°08' W 015°25'0 0.1
2016-May-24 16:33N 28°08' W 015°25'1413.8
2016-May-24 15:33N 28°06' W 015°09'1616.0
2016-May-24 14:33N 28°04' W 014°51'1616.0
2016-May-24 13:33N 28°02' W 014°33'1615.9
2016-May-24 12:32N 28°03' W 014°15'33 4.6
2016-May-24 05:25N 28°27' W 013°50'2714.1
2016-May-24 03:29N 28°06' W 014°09'2914.8
2016-May-24 01:32N 28°03' W 014°42'1515.3
2016-May-24 00:33N 28°04' W 014°59'1515.4
2016-May-23 23:33N 28°06' W 015°16'8 8.2
2016-May-23 22:33N 28°08' W 015°25'0 0.0
2016-May-23 21:32N 28°08' W 015°25'0 0.0
2016-May-23 20:32N 28°08' W 015°25'0 0.0
2016-May-23 19:32N 28°08' W 015°25'0 0.0
2016-May-23 18:32N 28°08' W 015°25'0 0.0
2016-May-23 17:32N 28°08' W 015°25'0 0.0
2016-May-23 16:20N 28°08' W 015°25'0 0.0
2016-May-23 15:26N 28°08' W 015°25'0 0.0
2016-May-23 14:26N 28°08' W 015°25'0 0.0
2016-May-23 13:11N 28°08' W 015°25'0 0.0
2016-May-23 12:29N 28°08' W 015°25'0 0.0
2016-May-23 11:29N 28°08' W 015°25'0 0.0
2016-May-23 10:29N 28°08' W 015°25'0 0.0
2016-May-23 09:32N 28°08' W 015°25'0 0.0
2016-May-23 08:32N 28°08' W 015°25'0 0.0
2016-May-23 07:29N 28°08' W 015°25'0 0.0
2016-May-23 06:32N 28°08' W 015°25'0 0.0
2016-May-23 05:32N 28°08' W 015°25'0 0.0
2016-May-23 04:32N 28°08' W 015°25'0 0.0
2016-May-23 03:32N 28°08' W 015°25'0 0.0
2016-May-23 02:23N 28°08' W 015°25'0 0.0
2016-May-23 01:23N 28°08' W 015°25'0 0.0
2016-May-23 00:26N 28°08' W 015°25'0 0.0
2016-May-22 23:26N 28°08' W 015°25'0 0.0
2016-May-22 22:23N 28°08' W 015°25'0 0.0
2016-May-22 21:29N 28°08' W 015°25'0 0.0
2016-May-22 20:29N 28°08' W 015°25'0 0.0
2016-May-22 19:29N 28°08' W 015°25'0 0.0
2016-May-22 18:29N 28°08' W 015°25'0 0.0
2016-May-22 17:32N 28°08' W 015°25'0 0.0
2016-May-22 16:32N 28°08' W 015°25'0 0.0
2016-May-22 15:32N 28°08' W 015°25'0 0.0
2016-May-22 14:32N 28°08' W 015°25'0 0.0
2016-May-22 13:32N 28°08' W 015°25'0 0.0
2016-May-22 12:32N 28°08' W 015°25'4 4.2
2016-May-22 11:33N 28°07' W 015°21'1615.8
2016-May-22 10:33N 28°05' W 015°03'1615.9
2016-May-22 09:33N 28°03' W 014°45'1616.3
2016-May-22 08:33N 28°01' W 014°27'5 1.9
2016-May-22 06:06N 28°03' W 014°22'510.2
2016-May-22 05:33N 28°01' W 014°28'1615.7
2016-May-22 04:33N 28°03' W 014°45'1615.7
2016-May-22 03:33N 28°05' W 015°03'1615.9
2016-May-22 02:33N 28°07' W 015°21'4 3.7
2016-May-22 01:33N 28°08' W 015°25'0 0.0
2016-May-22 00:32N 28°08' W 015°25'0 0.0
2016-May-21 23:20N 28°08' W 015°25'0 0.0
2016-May-21 22:23N 28°08' W 015°25'0 0.0
2016-May-21 21:23N 28°08' W 015°25'0 0.0
2016-May-21 20:23N 28°08' W 015°25'0 0.0
2016-May-21 19:29N 28°08' W 015°25'0 0.0
2016-May-21 18:29N 28°08' W 015°25'0 0.0
2016-May-21 17:29N 28°08' W 015°25'0 0.3
2016-May-21 16:33N 28°08' W 015°25'1414.0
2016-May-21 15:33N 28°05' W 015°09'1615.9
2016-May-21 14:33N 28°04' W 014°51'1615.8
2016-May-21 13:33N 28°02' W 014°33'1716.0
2016-May-21 12:30N 28°03' W 014°14'11 1.4
2016-May-21 04:26N 28°09' W 014°04'3115.0
2016-May-21 02:22N 28°02' W 014°38'1315.7
2016-May-21 01:33N 28°03' W 014°52'1515.6
2016-May-21 00:33N 28°05' W 015°10'1413.5
2016-May-20 23:33N 28°08' W 015°25'0 0.1
2016-May-20 22:28N 28°08' W 015°25'0 0.0
2016-May-20 21:28N 28°08' W 015°25'0 0.0
2016-May-20 20:28N 28°08' W 015°25'0 0.0
2016-May-20 19:28N 28°08' W 015°25'0 0.0
2016-May-20 18:31N 28°08' W 015°25'0 0.0
2016-May-20 17:31N 28°08' W 015°25'1 1.0
2016-May-20 16:33N 28°07' W 015°24'1515.2
2016-May-20 15:33N 28°05' W 015°07'1615.8
2016-May-20 14:33N 28°04' W 014°50'1615.7
2016-May-20 13:33N 28°02' W 014°32'1615.8
2016-May-20 12:32N 28°04' W 014°14'11 1.4
2016-May-20 04:19N 28°09' W 014°02'3314.6
2016-May-20 02:04N 28°02' W 014°39'815.4
2016-May-20 01:33N 28°03' W 014°48'1515.3
2016-May-20 00:33N 28°05' W 015°05'1515.3
2016-May-19 23:33N 28°07' W 015°22'3 3.0
2016-May-19 22:32N 28°08' W 015°25'0 0.0
2016-May-19 21:32N 28°08' W 015°25'0 0.0
2016-May-19 20:20N 28°08' W 015°25'0 0.0
2016-May-19 19:26N 28°08' W 015°25'0 0.0
2016-May-19 18:26N 28°08' W 015°25'0 0.0
2016-May-19 17:26N 28°08' W 015°25'1 1.6
2016-May-19 16:34N 28°07' W 015°24'1615.6
2016-May-19 15:34N 28°05' W 015°07'1615.6
2016-May-19 14:33N 28°04' W 014°49'1615.8
2016-May-19 13:33N 28°02' W 014°31'1615.8
2016-May-19 12:31N 28°04' W 014°13'31 4.4
2016-May-19 05:28N 28°27' W 013°50'2513.1
2016-May-19 03:33N 28°07' W 014°07'2914.5
2016-May-19 01:33N 28°02' W 014°39'1515.3
2016-May-19 00:34N 28°04' W 014°56'1515.4
2016-May-18 23:33N 28°06' W 015°14'10 9.6
2016-May-18 22:31N 28°08' W 015°25'0 0.0
2016-May-18 21:31N 28°08' W 015°25'  
Track history (hours):
 
Tides and Currents Weather Stations Pressure Air Temp Water Temp Dewpoint Dewpoint Depression Visibility Wind Speed Wind Dir Waves Ship Positions

Volcan De Tauce

Last reported at 2016-May-28 21:31 UTC. Time now 2016-May-28 22:09 UTC.
Position N 28°08' W 015°25'.

Length 120 m; draft 4.7 m.

Type: Passenger vessel. MMSI: 224761000.

Date/timePositionNaut miles runAvg speedWind from/ knotsBaromVisibWave heightAir tempDewpointWater temp
2016-May-28 21:31N 28°08' W 015°25'0 0.0
2016-May-28 20:31N 28°08' W 015°25'0 0.0
2016-May-28 19:22N 28°08' W 015°25'0 0.0
2016-May-28 18:25N 28°08' W 015°25'0 0.0
2016-May-28 17:25N 28°08' W 015°25'0 0.0
2016-May-28 16:33N 28°08' W 015°25'1212.5
2016-May-28 15:33N 28°06' W 015°11'1616.1
2016-May-28 14:33N 28°04' W 014°53'1616.1
2016-May-28 13:34N 28°02' W 014°35'1915.6
2016-May-28 12:21N 28°04' W 014°13'3114.9
2016-May-28 10:15N 28°28' W 013°51'20 3.6
2016-May-28 04:30N 28°09' W 013°60'1716.0
2016-May-28 03:25N 28°01' W 014°17'2115.4
2016-May-28 02:05N 28°02' W 014°40'815.7
2016-May-28 01:33N 28°03' W 014°50'1615.8
2016-May-28 00:33N 28°05' W 015°08'1515.0
2016-May-27 23:33N 28°08' W 015°25'1 0.7
2016-May-27 22:33N 28°08' W 015°25'0 0.0
2016-May-27 21:33N 28°08' W 015°25'0 0.0
2016-May-27 20:33N 28°08' W 015°25'0 0.0
2016-May-27 19:24N 28°08' W 015°25'0 0.0
2016-May-27 18:27N 28°08' W 015°25'0 0.0
2016-May-27 17:27N 28°08' W 015°25'0 0.3
2016-May-27 16:33N 28°08' W 015°25'1414.5
2016-May-27 15:33N 28°06' W 015°08'1615.6
2016-May-27 14:33N 28°04' W 014°51'1615.5
2016-May-27 13:33N 28°02' W 014°33'1715.4
2016-May-27 12:26N 28°04' W 014°14'13 1.6
2016-May-27 04:14N 28°09' W 014°00'1115.9
2016-May-27 03:31N 28°04' W 014°12'3015.1
2016-May-27 01:34N 28°03' W 014°45'1615.6
2016-May-27 00:34N 28°05' W 015°03'1615.6
2016-May-26 23:34N 28°07' W 015°20'4 3.5
2016-May-26 22:22N 28°08' W 015°25'0 0.0
2016-May-26 21:25N 28°08' W 015°25'0 0.0
2016-May-26 20:25N 28°08' W 015°25'0 0.0
2016-May-26 19:25N 28°08' W 015°25'0 0.0
2016-May-26 18:28N 28°08' W 015°25'0 0.0
2016-May-26 17:28N 28°08' W 015°25'1 1.0
2016-May-26 16:33N 28°07' W 015°24'1515.3
2016-May-26 15:33N 28°06' W 015°07'1615.6
2016-May-26 14:33N 28°04' W 014°50'1615.5
2016-May-26 13:33N 28°02' W 014°32'1615.3
2016-May-26 12:30N 28°04' W 014°14'8 0.9
2016-May-26 03:32N 28°08' W 014°06'2914.8
2016-May-26 01:33N 28°03' W 014°39'1515.3
2016-May-26 00:34N 28°04' W 014°56'1515.4
2016-May-25 23:33N 28°06' W 015°13'1010.2
2016-May-25 22:33N 28°08' W 015°25'0 0.0
2016-May-25 21:33N 28°08' W 015°25'0 0.0
2016-May-25 20:23N 28°08' W 015°25'0 0.0
2016-May-25 19:26N 28°08' W 015°25'0 0.0
2016-May-25 18:26N 28°08' W 015°25'0 0.0
2016-May-25 17:29N 28°08' W 015°25'1 1.0
2016-May-25 16:34N 28°07' W 015°24'1515.0
2016-May-25 15:34N 28°06' W 015°08'1615.6
2016-May-25 14:34N 28°04' W 014°50'1615.6
2016-May-25 13:34N 28°01' W 014°33'1815.7
2016-May-25 12:27N 28°04' W 014°13'8 1.0
2016-May-25 03:34N 28°08' W 014°05'3014.8
2016-May-25 01:33N 28°02' W 014°38'1515.5
2016-May-25 00:33N 28°04' W 014°55'1615.6
2016-May-24 23:33N 28°06' W 015°13'1110.9
2016-May-24 22:33N 28°08' W 015°25'0 0.0
2016-May-24 21:33N 28°08' W 015°25'0 0.0
2016-May-24 20:33N 28°08' W 015°25'0 0.0
2016-May-24 19:33N 28°08' W 015°25'0 0.0
2016-May-24 18:33N 28°08' W 015°25'0 0.0
2016-May-24 17:24N 28°08' W 015°25'0 0.1
2016-May-24 16:33N 28°08' W 015°25'1413.8
2016-May-24 15:33N 28°06' W 015°09'1616.0
2016-May-24 14:33N 28°04' W 014°51'1616.0
2016-May-24 13:33N 28°02' W 014°33'1615.9
2016-May-24 12:32N 28°03' W 014°15'33 4.6
2016-May-24 05:25N 28°27' W 013°50'2714.1
2016-May-24 03:29N 28°06' W 014°09'2914.8
2016-May-24 01:32N 28°03' W 014°42'1515.3
2016-May-24 00:33N 28°04' W 014°59'1515.4
2016-May-23 23:33N 28°06' W 015°16'8 8.2
2016-May-23 22:33N 28°08' W 015°25'0 0.0
2016-May-23 21:32N 28°08' W 015°25'0 0.0
2016-May-23 20:32N 28°08' W 015°25'0 0.0
2016-May-23 19:32N 28°08' W 015°25'0 0.0
2016-May-23 18:32N 28°08' W 015°25'0 0.0
2016-May-23 17:32N 28°08' W 015°25'0 0.0
2016-May-23 16:20N 28°08' W 015°25'0 0.0
2016-May-23 15:26N 28°08' W 015°25'0 0.0
2016-May-23 14:26N 28°08' W 015°25'0 0.0
2016-May-23 13:11N 28°08' W 015°25'0 0.0
2016-May-23 12:29N 28°08' W 015°25'0 0.0
2016-May-23 11:29N 28°08' W 015°25'0 0.0
2016-May-23 10:29N 28°08' W 015°25'0 0.0
2016-May-23 09:32N 28°08' W 015°25'0 0.0
2016-May-23 08:32N 28°08' W 015°25'0 0.0
2016-May-23 07:29N 28°08' W 015°25'0 0.0
2016-May-23 06:32N 28°08' W 015°25'0 0.0
2016-May-23 05:32N 28°08' W 015°25'0 0.0
2016-May-23 04:32N 28°08' W 015°25'0 0.0
2016-May-23 03:32N 28°08' W 015°25'0 0.0
2016-May-23 02:23N 28°08' W 015°25'0 0.0
2016-May-23 01:23N 28°08' W 015°25'0 0.0
2016-May-23 00:26N 28°08' W 015°25'0 0.0
2016-May-22 23:26N 28°08' W 015°25'0 0.0
2016-May-22 22:23N 28°08' W 015°25'0 0.0
2016-May-22 21:29N 28°08' W 015°25'0 0.0
2016-May-22 20:29N 28°08' W 015°25'0 0.0
2016-May-22 19:29N 28°08' W 015°25'0 0.0
2016-May-22 18:29N 28°08' W 015°25'0 0.0
2016-May-22 17:32N 28°08' W 015°25'0 0.0
2016-May-22 16:32N 28°08' W 015°25'0 0.0
2016-May-22 15:32N 28°08' W 015°25'0 0.0
2016-May-22 14:32N 28°08' W 015°25'0 0.0
2016-May-22 13:32N 28°08' W 015°25'0 0.0
2016-May-22 12:32N 28°08' W 015°25'4 4.2
2016-May-22 11:33N 28°07' W 015°21'1615.8
2016-May-22 10:33N 28°05' W 015°03'1615.9
2016-May-22 09:33N 28°03' W 014°45'1616.3
2016-May-22 08:33N 28°01' W 014°27'5 1.9
2016-May-22 06:06N 28°03' W 014°22'510.2
2016-May-22 05:33N 28°01' W 014°28'1615.7
2016-May-22 04:33N 28°03' W 014°45'1615.7
2016-May-22 03:33N 28°05' W 015°03'1615.9
2016-May-22 02:33N 28°07' W 015°21'4 3.7
2016-May-22 01:33N 28°08' W 015°25'0 0.0
2016-May-22 00:32N 28°08' W 015°25'0 0.0
2016-May-21 23:20N 28°08' W 015°25'0 0.0
2016-May-21 22:23N 28°08' W 015°25'0 0.0
2016-May-21 21:23N 28°08' W 015°25'0 0.0
2016-May-21 20:23N 28°08' W 015°25'0 0.0
2016-May-21 19:29N 28°08' W 015°25'0 0.0
2016-May-21 18:29N 28°08' W 015°25'0 0.0
2016-May-21 17:29N 28°08' W 015°25'0 0.3
2016-May-21 16:33N 28°08' W 015°25'1414.0
2016-May-21 15:33N 28°05' W 015°09'1615.9
2016-May-21 14:33N 28°04' W 014°51'1615.8
2016-May-21 13:33N 28°02' W 014°33'1716.0
2016-May-21 12:30N 28°03' W 014°14'11 1.4
2016-May-21 04:26N 28°09' W 014°04'3115.0
2016-May-21 02:22N 28°02' W 014°38'1315.7
2016-May-21 01:33N 28°03' W 014°52'1515.6
2016-May-21 00:33N 28°05' W 015°10'1413.5
2016-May-20 23:33N 28°08' W 015°25'0 0.1
2016-May-20 22:28N 28°08' W 015°25'0 0.0
2016-May-20 21:28N 28°08' W 015°25'0 0.0
2016-May-20 20:28N 28°08' W 015°25'0 0.0
2016-May-20 19:28N 28°08' W 015°25'0 0.0
2016-May-20 18:31N 28°08' W 015°25'0 0.0
2016-May-20 17:31N 28°08' W 015°25'1 1.0
2016-May-20 16:33N 28°07' W 015°24'1515.2
2016-May-20 15:33N 28°05' W 015°07'1615.8
2016-May-20 14:33N 28°04' W 014°50'1615.7
2016-May-20 13:33N 28°02' W 014°32'1615.8
2016-May-20 12:32N 28°04' W 014°14'11 1.4
2016-May-20 04:19N 28°09' W 014°02'3314.6
2016-May-20 02:04N 28°02' W 014°39'815.4
2016-May-20 01:33N 28°03' W 014°48'1515.3
2016-May-20 00:33N 28°05' W 015°05'1515.3
2016-May-19 23:33N 28°07' W 015°22'3 3.0
2016-May-19 22:32N 28°08' W 015°25'0 0.0
2016-May-19 21:32N 28°08' W 015°25'0 0.0
2016-May-19 20:20N 28°08' W 015°25'0 0.0
2016-May-19 19:26N 28°08' W 015°25'0 0.0
2016-May-19 18:26N 28°08' W 015°25'0 0.0
2016-May-19 17:26N 28°08' W 015°25'1 1.6
2016-May-19 16:34N 28°07' W 015°24'1615.6
2016-May-19 15:34N 28°05' W 015°07'1615.6
2016-May-19 14:33N 28°04' W 014°49'1615.8
2016-May-19 13:33N 28°02' W 014°31'1615.8
2016-May-19 12:31N 28°04' W 014°13'31 4.4
2016-May-19 05:28N 28°27' W 013°50'2513.1
2016-May-19 03:33N 28°07' W 014°07'2914.5
2016-May-19 01:33N 28°02' W 014°39'1515.3
2016-May-19 00:34N 28°04' W 014°56'1515.4
2016-May-18 23:33N 28°06' W 015°14'10 9.6
2016-May-18 22:31N 28°08' W 015°25'0 0.0
2016-May-18 21:31N 28°08' W 015°25'  

Dump ship's entire track history